Time;durP1;ratioP1;P1;durP2;ratioP2;P2;SDS_P1;SDS_P2;PMS_P1;PMS_P2;Temp;Humidity;BMP_temperature;BMP_pressure;BME280_temperature;BME280_humidity;BME280_pressure;Samples;Min_cycle;Max_cycle;Signal;HPM_P1;HPM_P2
2023/01/08 00:01:59;;;;;;;43.20;25.45;;;;;;;1.33;80.82;99940.22;30986873;28;97218;-68
2023/01/08 00:17:01;;;;;;;30.33;19.00;;;;;;;1.41;81.68;99939.66;30985347;28;96644;-67
2023/01/08 00:32:03;;;;;;;39.88;23.00;;;;;;;1.27;81.35;99927.59;30984456;28;97463;-67
2023/01/08 00:47:03;;;;;;;42.90;22.05;;;;;;;1.13;81.60;99901.53;30982182;28;96734;-67
2023/01/08 01:02:03;;;;;;;49.00;26.02;;;;;;;0.93;81.23;99906.50;30980661;28;96642;-67
2023/01/08 01:17:04;;;;;;;46.20;26.25;;;;;;;0.91;81.86;99916.28;30979625;28;97018;-67
2023/01/08 01:32:05;;;;;;;52.53;28.55;;;;;;;0.84;81.99;99896.72;30978935;28;96710;-67
2023/01/08 01:47:19;;;;;;;46.60;27.65;;;;;;;0.74;82.12;99888.69;30977423;28;96752;-67
2023/01/08 02:02:19;;;;;;;46.57;28.73;;;;;;;0.69;82.16;99876.88;30976280;28;96674;-67
2023/01/08 02:17:31;;;;;;;58.70;28.70;;;;;;;0.66;82.50;99870.91;30990578;28;96763;-68
2023/01/08 02:32:35;;;;;;;58.20;30.10;;;;;;;0.66;82.58;99846.47;30995576;28;96594;-68
2023/01/08 02:47:54;;;;;;;47.37;28.00;;;;;;;0.55;82.46;99835.94;30994208;28;96910;-68
2023/01/08 03:03:08;;;;;;;51.97;28.27;;;;;;;0.57;82.77;99868.97;30993222;28;96628;-67
2023/01/08 03:18:12;;;;;;;54.00;29.77;;;;;;;0.43;82.46;99864.75;30990770;28;96789;-67
2023/01/08 03:33:15;;;;;;;54.80;28.97;;;;;;;0.38;82.73;99851.13;30989579;28;96646;-68
2023/01/08 03:48:19;;;;;;;45.45;27.27;;;;;;;0.34;82.93;99823.50;30987868;28;96809;-67
2023/01/08 04:03:19;;;;;;;35.37;20.77;;;;;;;0.41;83.18;99779.31;30986652;28;96914;-67
2023/01/08 04:18:19;;;;;;;48.30;26.73;;;;;;;0.48;83.33;99776.13;30984617;28;96713;-67
2023/01/08 04:33:20;;;;;;;47.05;27.27;;;;;;;0.53;83.67;99786.25;30981810;28;96682;-66
2023/01/08 04:48:20;;;;;;;49.03;26.45;;;;;;;0.72;84.09;99774.41;30982028;28;96749;-67
2023/01/08 05:03:20;;;;;;;38.88;24.25;;;;;;;0.78;83.85;99764.28;30981110;28;96691;-67
2023/01/08 05:18:21;;;;;;;50.05;24.90;;;;;;;0.79;83.80;99741.50;30979266;28;97462;-67
2023/01/08 05:33:22;;;;;;;47.42;25.77;;;;;;;0.82;83.61;99726.38;30978066;28;97336;-67
2023/01/08 05:48:22;;;;;;;52.75;29.17;;;;;;;0.72;83.77;99728.03;30974719;28;96730;-67
2023/01/08 06:03:23;;;;;;;45.38;24.52;;;;;;;0.74;83.38;99715.66;30976353;28;96616;-67
2023/01/08 06:18:23;;;;;;;42.72;25.33;;;;;;;0.70;83.80;99706.34;30973480;28;96832;-67
2023/01/08 06:33:24;;;;;;;42.22;23.27;;;;;;;0.70;83.53;99685.38;30971725;28;97642;-67
2023/01/08 06:48:24;;;;;;;39.65;23.75;;;;;;;0.59;83.41;99670.47;30971215;28;97116;-67
2023/01/08 07:03:25;;;;;;;34.05;20.58;;;;;;;0.62;83.79;99691.19;30987166;28;97021;-67
2023/01/08 07:18:25;;;;;;;33.53;18.67;;;;;;;1.17;84.40;99687.81;30988801;28;97052;-67
2023/01/08 07:33:26;;;;;;;34.10;19.63;;;;;;;1.33;83.65;99679.56;30988578;28;96636;-67
2023/01/08 07:48:26;;;;;;;34.00;18.50;;;;;;;1.63;83.76;99670.16;30984571;28;96633;-67
2023/01/08 08:03:28;;;;;;;31.38;16.92;;;;;;;2.07;83.33;99641.19;30984296;28;97357;-67
2023/01/08 08:18:28;;;;;;;30.80;17.95;;;;;;;2.62;83.57;99639.09;30983948;28;97314;-65
2023/01/08 08:33:29;;;;;;;26.65;16.83;;;;;;;4.06;83.74;99621.06;30983022;28;96689;-65
2023/01/08 08:48:29;;;;;;;24.88;14.80;;;;;;;10.24;79.98;99613.81;30979736;28;96764;-66
2023/01/08 09:03:30;;;;;;;15.25;9.75;;;;;;;16.43;69.55;99617.63;30978319;28;96978;-66
2023/01/08 09:18:30;;;;;;;16.75;10.50;;;;;;;18.12;61.07;99615.13;30977070;28;97276;-67
2023/01/08 09:33:30;;;;;;;13.57;8.68;;;;;;;18.49;57.39;99620.25;30975912;28;96749;-66
2023/01/08 09:48:34;;;;;;;11.95;8.40;;;;;;;22.61;48.17;99609.63;30974168;28;96694;-67
2023/01/08 10:03:45;;;;;;;12.77;7.57;;;;;;;24.19;37.74;99592.22;30973794;28;96881;-67
2023/01/08 10:18:46;;;;;;;11.67;7.53;;;;;;;21.98;38.09;99563.38;30973909;28;97519;-67
2023/01/08 10:33:48;;;;;;;12.23;7.25;;;;;;;22.70;37.06;99538.53;30981474;28;96736;-68
2023/01/08 10:48:54;;;;;;;9.77;6.37;;;;;;;22.14;33.28;99534.44;30990867;28;96754;-67
2023/01/08 11:03:56;;;;;;;10.10;6.13;;;;;;;21.47;33.36;99518.53;30990808;28;96807;-68
2023/01/08 11:18:57;;;;;;;7.47;5.47;;;;;;;21.15;33.85;99498.75;30989257;28;97371;-68
2023/01/08 11:34:09;;;;;;;7.93;5.35;;;;;;;23.40;31.02;99516.38;30988582;28;97315;-67
2023/01/08 11:49:26;;;;;;;8.23;5.33;;;;;;;21.15;32.14;99496.84;30986476;28;96751;-68
2023/01/08 12:04:56;;;;;;;7.40;5.40;;;;;;;17.96;35.91;99494.56;30984418;28;97371;-68
2023/01/08 12:20:14;;;;;;;8.63;5.60;;;;;;;16.19;40.08;99485.75;30982762;28;96746;-67
2023/01/08 12:35:23;;;;;;;9.17;6.07;;;;;;;16.15;39.82;99468.44;30982221;28;97320;-67
2023/01/08 12:50:26;;;;;;;10.23;6.63;;;;;;;12.66;45.38;99469.06;30979838;28;96770;-67
2023/01/08 13:05:29;;;;;;;12.87;6.80;;;;;;;10.42;50.33;99467.84;30978857;28;96764;-66
2023/01/08 13:20:31;;;;;;;14.17;7.67;;;;;;;9.10;53.79;99433.81;30976704;28;96700;-66
2023/01/08 13:35:31;;;;;;;14.67;7.20;;;;;;;8.04;56.89;99409.63;30978402;28;96634;-67
2023/01/08 13:50:36;;;;;;;13.90;6.85;;;;;;;7.55;59.23;99394.72;30976195;28;97874;-67
2023/01/08 14:05:36;;;;;;;13.37;7.10;;;;;;;7.28;60.84;99378.19;30981023;28;97579;-67
2023/01/08 14:20:39;;;;;;;14.00;7.38;;;;;;;7.18;61.73;99396.13;30995177;28;97214;-67
2023/01/08 14:35:40;;;;;;;15.67;8.63;;;;;;;6.76;63.16;99414.63;30994187;28;96691;-67
2023/01/08 14:50:43;;;;;;;15.48;8.30;;;;;;;6.16;64.46;99399.00;30991842;28;96810;-67
2023/01/08 15:05:48;;;;;;;17.73;9.17;;;;;;;5.67;66.22;99384.59;30992064;28;96672;-67
2023/01/08 15:20:49;;;;;;;15.07;8.52;;;;;;;5.42;67.34;99360.69;30988549;28;96613;-67
2023/01/08 15:35:50;;;;;;;19.70;10.40;;;;;;;5.14;68.29;99343.34;30988849;28;96626;-66
2023/01/08 15:50:52;;;;;;;18.10;8.57;;;;;;;4.99;69.44;99338.66;30986314;28;97414;-66
2023/01/08 16:05:52;;;;;;;22.33;12.23;;;;;;;4.77;70.12;99349.69;30985354;28;96725;-67
2023/01/08 16:21:00;;;;;;;26.02;12.77;;;;;;;4.64;70.92;99374.69;30983568;28;96704;-66
2023/01/08 16:36:03;;;;;;;23.00;10.48;;;;;;;4.72;71.49;99372.09;30981696;28;96574;-66
2023/01/08 16:51:05;;;;;;;19.63;11.83;;;;;;;4.75;71.91;99363.88;30981593;28;96650;-66
2023/01/08 17:06:11;;;;;;;25.48;11.82;;;;;;;4.73;71.98;99334.19;30980563;28;96904;-66
2023/01/08 17:21:13;;;;;;;20.92;10.73;;;;;;;4.61;72.55;99335.41;30977653;28;97168;-67
2023/01/08 17:36:22;;;;;;;21.52;11.63;;;;;;;4.63;72.59;99345.81;30976971;28;96752;-66
2023/01/08 17:51:22;;;;;;;21.27;12.30;;;;;;;4.52;72.68;99321.31;30975618;28;96689;-67
2023/01/08 18:06:23;;;;;;;20.55;11.00;;;;;;;4.64;73.03;99308.72;30977262;28;96731;-66
2023/01/08 18:21:25;;;;;;;10.23;6.43;;;;;;;4.72;73.30;99343.06;30966016;28;98395;-68
2023/01/08 18:36:26;;;;;;;26.35;14.35;;;;;;;4.65;73.26;99336.75;30937173;28;98607;-65
2023/01/08 18:51:26;;;;;;;24.88;13.02;;;;;;;4.63;73.59;99312.34;30937796;28;98652;-60
2023/01/08 19:06:27;;;;;;;28.38;14.80;;;;;;;4.65;73.73;99306.94;30952767;28;97451;-61
2023/01/08 19:21:27;;;;;;;27.25;13.10;;;;;;;4.66;73.51;99295.38;30956497;28;98076;-60
2023/01/08 19:36:28;;;;;;;22.85;11.60;;;;;;;4.76;73.67;99261.81;30977184;28;97493;-68
2023/01/08 19:51:30;;;;;;;25.55;13.82;;;;;;;4.67;73.61;99250.38;30977015;28;97072;-60
2023/01/08 20:06:30;;;;;;;23.38;12.52;;;;;;;4.78;73.87;99214.16;30936040;28;99723;-62
2023/01/08 20:21:32;;;;;;;24.38;12.38;;;;;;;4.74;73.89;99188.09;30950170;28;97890;-61
2023/01/08 20:36:33;;;;;;;31.67;15.32;;;;;;;4.53;73.85;99148.06;30957357;28;97334;-64
2023/01/08 20:51:37;;;;;;;34.38;14.40;;;;;;;4.10;73.88;99148.00;30972304;28;97018;-61
2023/01/08 21:06:38;;;;;;;36.13;15.63;;;;;;;3.64;74.58;99120.97;30970058;28;97381;-63
2023/01/08 21:21:39;;;;;;;30.73;15.25;;;;;;;3.50;75.09;99117.88;30967838;28;97171;-61
2023/01/08 21:36:40;;;;;;;25.58;12.93;;;;;;;3.53;75.82;99106.22;30966471;28;96686;-60
2023/01/08 22:06:59;;;;;;;30.85;14.20;;;;;;;3.08;76.50;99083.44;30965168;28;96714;-63
2023/01/08 22:22:00;;;;;;;25.58;14.25;;;;;;;2.74;76.43;99049.84;30965819;28;97038;-63
2023/01/08 22:37:00;;;;;;;36.90;16.40;;;;;;;2.61;77.13;99051.03;30984852;28;97529;-61
2023/01/08 22:52:01;;;;;;;31.30;14.57;;;;;;;2.44;77.44;99054.44;30985933;28;97041;-62
2023/01/08 23:07:01;;;;;;;27.88;14.25;;;;;;;2.44;77.51;99020.28;30987092;28;97260;-60
2023/01/08 23:22:02;;;;;;;30.58;14.82;;;;;;;2.39;78.07;98997.03;30992678;28;97758;-62
2023/01/08 23:37:02;;;;;;;33.28;15.85;;;;;;;2.20;78.24;98972.53;30991027;28;97258;-61
2023/01/08 23:52:03;;;;;;;41.08;17.95;;;;;;;2.02;77.84;98958.50;30989576;28;96774;-61
